Terminal Aerodrome Forecast
Issued by NWS Charleston, WV

Current Version | Previous Version | Text Only | Print | Product List | Glossary Off
Versions: 1 2 3 4 5 6 7 8 9 10 11 12 13 14 15 16 17 18 19 20 21 22 23 24 25 26 27

000
FTUS41 KRLX 291400 AAA
TAFBKW
TAF AMD
KBKW 291443Z 2915/3012 17011G18KT P6SM BKN100
     FM291800 18012G20KT P6SM -RA OVC050
     FM292000 19012G20KT P6SM OVC050
     FM300100 27012G22KT P6SM OVC025
     FM300300 27013G23KT P6SM OVC012
     FM300500 29013G23KT 5SM -SN OVC010
     FM300700 29013G23KT 3SM -SN OVC008
     FM300800 30013G23KT 1SM -SN OVC006=

USA.gov is the U.S. government's official web portal to all federal, state and local government web resources and services.